Time;durP1;ratioP1;P1;durP2;ratioP2;P2;SDS_P1;SDS_P2;PMS_P1;PMS_P2;Temp;Humidity;BMP_temperature;BMP_pressure;BME280_temperature;BME280_humidity;BME280_pressure;Samples;Min_cycle;Max_cycle;Signal;HPM_P1;HPM_P2
2021/01/08 00:00:41;;;;;;;2.2;1.5;;;;;;;-0.9;75.58691;933.5489;;;;
2021/01/08 00:03:06;;;;;;;3.2;2.2;;;;;;;-0.84;75.47461;933.4919;;;;
2021/01/08 00:05:31;;;;;;;2.5;2.2;;;;;;;-1.02;75.79883;933.5839;;;;
2021/01/08 00:07:56;;;;;;;5.1;2.5;;;;;;;-1.06;75.89063;933.5101;;;;
2021/01/08 00:10:21;;;;;;;7.3;2.7;;;;;;;-1.27;76.71973;933.4724;;;;
2021/01/08 00:12:47;;;;;;;6;2.8;;;;;;;-1.35;77.09375;933.5134;;;;
2021/01/08 00:15:12;;;;;;;5.3;2.9;;;;;;;-1.35;77.37109;933.5016;;;;
2021/01/08 00:17:37;;;;;;;4.3;2.1;;;;;;;-1.27;77.1543;933.4468;;;;
2021/01/08 00:20:03;;;;;;;3.5;2.6;;;;;;;-1.18;76.8916;933.4675;;;;
2021/01/08 00:22:28;;;;;;;5.7;3.1;;;;;;;-1.11;76.53809;933.455;;;;
2021/01/08 00:24:53;;;;;;;7.4;2.1;;;;;;;-1.18;76.20117;933.4633;;;;
2021/01/08 00:27:18;;;;;;;7;3.2;;;;;;;-1.06;76.13574;933.4673;;;;
2021/01/08 00:29:43;;;;;;;1.7;1.6;;;;;;;-1.08;75.39844;933.4423;;;;
2021/01/08 00:32:08;;;;;;;7.7;3.3;;;;;;;-1.34;76.07422;933.473;;;;
2021/01/08 00:34:33;;;;;;;3.7;2.1;;;;;;;-1.32;76.54297;933.4052;;;;
2021/01/08 00:36:58;;;;;;;3.8;2.5;;;;;;;-1.31;76.43359;933.3885;;;;
2021/01/08 00:39:23;;;;;;;3;2.2;;;;;;;-1.4;77.17285;933.4153;;;;
2021/01/08 00:41:49;;;;;;;3.3;2.2;;;;;;;-1.34;76.90625;933.4012;;;;
2021/01/08 00:44:14;;;;;;;3.4;1.7;;;;;;;-1.36;76.38184;933.4034;;;;
2021/01/08 00:46:39;;;;;;;3;1.6;;;;;;;-1.26;76.31055;933.4097;;;;
2021/01/08 00:49:04;;;;;;;2.6;1.7;;;;;;;-1.21;76.34277;933.3112;;;;
2021/01/08 00:51:29;;;;;;;2.7;2;;;;;;;-1.13;76.01172;933.4117;;;;
2021/01/08 00:53:54;;;;;;;4.1;1.8;;;;;;;-1.03;75.91797;933.3506;;;;
2021/01/08 00:56:19;;;;;;;4.8;1.9;;;;;;;-1.07;75.97852;933.4269;;;;
2021/01/08 00:58:45;;;;;;;3.1;1.6;;;;;;;-1.02;76.1416;933.3961;;;;
2021/01/08 01:01:10;;;;;;;4.5;2.5;;;;;;;-1.07;75.82227;933.3403;;;;
2021/01/08 01:03:35;;;;;;;3.3;2.1;;;;;;;-1.07;75.97852;933.4456;;;;
2021/01/08 01:06:00;;;;;;;2.4;2;;;;;;;-0.91;75.7627;933.4178;;;;
2021/01/08 01:08:25;;;;;;;2.3;1.8;;;;;;;-0.82;74.8457;933.4047;;;;
2021/01/08 01:10:50;;;;;;;7.5;2.2;;;;;;;-0.74;75.16992;933.4911;;;;
2021/01/08 01:13:15;;;;;;;1.8;1.4;;;;;;;-0.73;75.25098;933.4908;;;;
2021/01/08 01:15:40;;;;;;;3.4;2;;;;;;;-0.75;75.14551;933.4851;;;;
2021/01/08 01:18:05;;;;;;;4;2.4;;;;;;;-0.88;75.40137;933.5817;;;;
2021/01/08 01:20:31;;;;;;;5.1;1.9;;;;;;;-0.99;75.7168;933.552;;;;
2021/01/08 01:22:56;;;;;;;2.1;1.6;;;;;;;-0.94;75.69141;933.5684;;;;
2021/01/08 01:25:21;;;;;;;4;2.3;;;;;;;-0.86;75.4707;933.5864;;;;
2021/01/08 01:27:46;;;;;;;2.5;2;;;;;;;-1.01;75.14551;933.6788;;;;
2021/01/08 01:30:12;;;;;;;2.7;1.3;;;;;;;-1.16;75.55078;933.6331;;;;
2021/01/08 01:32:37;;;;;;;4.1;2;;;;;;;-1.17;76.05859;933.6012;;;;
2021/01/08 01:35:02;;;;;;;3.4;2.2;;;;;;;-1.17;75.53809;933.6739;;;;
2021/01/08 01:37:27;;;;;;;2.1;1.9;;;;;;;-1.24;75.58105;933.6462;;;;
2021/01/08 01:39:52;;;;;;;4.6;2.2;;;;;;;-1.16;75.31738;933.6465;;;;
2021/01/08 01:42:17;;;;;;;3.4;2;;;;;;;-1.15;74.46387;933.6514;;;;
2021/01/08 01:44:42;;;;;;;3.2;2.1;;;;;;;-1.05;74.40332;933.6708;;;;
2021/01/08 01:47:07;;;;;;;2.1;1.8;;;;;;;-0.99;73.7832;933.6223;;;;
2021/01/08 01:49:32;;;;;;;2;1.5;;;;;;;-0.99;73.36035;933.6692;;;;
2021/01/08 01:51:57;;;;;;;4.1;1.6;;;;;;;-0.91;72.72852;933.6766;;;;
2021/01/08 01:54:23;;;;;;;1.9;1.6;;;;;;;-0.89;72.99805;933.6806;;;;
2021/01/08 01:56:48;;;;;;;3.5;1.4;;;;;;;-0.8;73.03613;933.6356;;;;
2021/01/08 01:59:13;;;;;;;2.2;1.8;;;;;;;-0.77;72.9541;933.666;;;;
2021/01/08 02:01:38;;;;;;;2.2;1.6;;;;;;;-0.79;73.03809;933.6655;;;;
2021/01/08 02:04:03;;;;;;;2.1;1.4;;;;;;;-0.9;73.7959;933.7128;;;;
2021/01/08 02:06:28;;;;;;;2.6;1.4;;;;;;;-0.86;73.9834;933.7023;;;;
2021/01/08 02:08:53;;;;;;;2.2;1.4;;;;;;;-0.96;73.94141;933.6585;;;;
2021/01/08 02:11:18;;;;;;;1.6;1.3;;;;;;;-1.15;74.03223;933.7085;;;;
2021/01/08 02:13:43;;;;;;;1.6;1.4;;;;;;;-1.3;74.04785;933.7004;;;;
2021/01/08 02:16:09;;;;;;;2.2;1.2;;;;;;;-1.48;74.27344;933.7062;;;;
2021/01/08 02:18:34;;;;;;;3.3;1.9;;;;;;;-1.55;74.9375;933.7389;;;;
2021/01/08 02:20:59;;;;;;;1.9;1.4;;;;;;;-1.3;74.98242;933.6772;;;;
2021/01/08 02:23:24;;;;;;;4.2;2.2;;;;;;;-1.2;74.58789;933.7026;;;;
2021/01/08 02:25:49;;;;;;;1.3;1.1;;;;;;;-1.18;72.54883;933.6643;;;;
2021/01/08 02:28:14;;;;;;;1.7;1.4;;;;;;;-0.99;72.50293;933.662;;;;
2021/01/08 02:30:41;;;;;;;1.4;1.3;;;;;;;-1.04;70.70508;933.6539;;;;
2021/01/08 02:33:04;;;;;;;1.3;1.2;;;;;;;-1.01;70.53223;933.6262;;;;
2021/01/08 02:35:29;;;;;;;1;0.9;;;;;;;-0.99;71.33691;933.6846;;;;
2021/01/08 02:37:55;;;;;;;2.3;1.3;;;;;;;-0.92;71.54883;933.6661;;;;
2021/01/08 02:40:20;;;;;;;2.9;1.7;;;;;;;-1.16;71.59668;933.6656;;;;
2021/01/08 02:42:45;;;;;;;1.7;1.4;;;;;;;-1.28;72.02051;933.665;;;;
2021/01/08 02:45:10;;;;;;;9;1.3;;;;;;;-1.23;71.08398;933.6624;;;;
2021/01/08 02:47:35;;;;;;;1.2;1.1;;;;;;;-1.21;70.97754;933.7039;;;;
2021/01/08 02:50:00;;;;;;;1.1;1;;;;;;;-1.12;71.30273;933.6683;;;;
2021/01/08 02:52:25;;;;;;;3;1.4;;;;;;;-0.98;71.12695;933.6976;;;;
2021/01/08 02:54:50;;;;;;;1.2;1.1;;;;;;;-0.87;71.23438;933.6437;;;;
2021/01/08 02:57:15;;;;;;;1.6;1.2;;;;;;;-0.8;70.6123;933.6694;;;;
2021/01/08 02:59:41;;;;;;;2.4;1.3;;;;;;;-0.73;69.99121;933.6722;;;;
2021/01/08 03:02:06;;;;;;;1.9;1.2;;;;;;;-0.78;69.57031;933.6812;;;;
2021/01/08 03:04:31;;;;;;;1.6;1.3;;;;;;;-0.91;69.90527;933.6905;;;;
2021/01/08 03:06:56;;;;;;;1.6;1;;;;;;;-1.08;70.63184;933.7224;;;;
2021/01/08 03:09:21;;;;;;;2.4;1.5;;;;;;;-1.08;70.85449;933.6742;;;;
2021/01/08 03:11:46;;;;;;;3;1.8;;;;;;;-1.08;70.94336;933.7126;;;;
2021/01/08 03:14:11;;;;;;;3.9;1.8;;;;;;;-1.07;70.9668;933.6463;;;;
2021/01/08 03:16:36;;;;;;;1.8;1.4;;;;;;;-1;70.92188;933.7533;;;;
2021/01/08 03:19:01;;;;;;;5.9;1.5;;;;;;;-1.13;69.31348;933.7197;;;;
2021/01/08 03:21:26;;;;;;;2.2;1.6;;;;;;;-1.05;69.93652;933.7144;;;;
2021/01/08 03:23:52;;;;;;;2;1.1;;;;;;;-1.12;69.87988;933.7472;;;;
2021/01/08 03:26:17;;;;;;;1.4;1.3;;;;;;;-1.2;67.45605;933.7494;;;;
2021/01/08 03:28:42;;;;;;;1.5;1.3;;;;;;;-1.23;68.24219;933.7017;;;;
2021/01/08 03:31:07;;;;;;;2.9;1.3;;;;;;;-1.04;68.04004;933.7214;;;;
2021/01/08 03:33:32;;;;;;;2;1;;;;;;;-1;67.43262;933.683;;;;
2021/01/08 03:35:57;;;;;;;1.6;1.2;;;;;;;-0.97;66.53711;933.6393;;;;
2021/01/08 03:38:22;;;;;;;2;1.6;;;;;;;-1.08;66.17676;933.6658;;;;
2021/01/08 03:40:47;;;;;;;3.3;1.6;;;;;;;-1.27;66.25977;933.6749;;;;
2021/01/08 03:43:12;;;;;;;1.5;1;;;;;;;-1.21;66.76758;933.6758;;;;
2021/01/08 03:45:37;;;;;;;2.7;1.3;;;;;;;-1.14;66.98926;933.6869;;;;
2021/01/08 03:48:03;;;;;;;1.4;0.9;;;;;;;-1.03;66.82813;933.6816;;;;
2021/01/08 03:50:28;;;;;;;1.9;1.4;;;;;;;-0.92;68.00195;933.6791;;;;
2021/01/08 03:52:53;;;;;;;7.9;1.6;;;;;;;-1.16;66.23047;933.6425;;;;
2021/01/08 03:55:18;;;;;;;1.4;1.1;;;;;;;-1.31;67.0625;933.7042;;;;
2021/01/08 03:57:43;;;;;;;3.2;1;;;;;;;-1.31;67.70605;933.7266;;;;
2021/01/08 04:02:28;;;;;;;1.9;1;;;;;;;-1.16;67.33008;933.7292;;;;
2021/01/08 04:04:53;;;;;;;2.2;1.2;;;;;;;-1.08;68.44336;933.6705;;;;
2021/01/08 04:07:18;;;;;;;3.1;1.2;;;;;;;-1.09;69.1416;933.5472;;;;
2021/01/08 04:09:43;;;;;;;1.3;1.1;;;;;;;-1.02;70.09863;933.5604;;;;
2021/01/08 04:12:09;;;;;;;0.8;0.8;;;;;;;-1.05;68.46973;933.6997;;;;
2021/01/08 04:14:34;;;;;;;2.5;1;;;;;;;-1.02;68.36328;933.7158;;;;
2021/01/08 04:16:59;;;;;;;3.7;1.6;;;;;;;-1.25;68.30469;933.7028;;;;
2021/01/08 04:19:24;;;;;;;3.6;1.2;;;;;;;-1.09;68.21973;933.7056;;;;
2021/01/08 04:21:50;;;;;;;0.9;0.8;;;;;;;-1.08;68.16602;933.7211;;;;
2021/01/08 04:24:14;;;;;;;2.8;1.5;;;;;;;-1.12;67.52637;933.6624;;;;
2021/01/08 04:26:39;;;;;;;1.5;1.2;;;;;;;-1.03;68.37305;933.6956;;;;
2021/01/08 04:29:04;;;;;;;1.1;0.9;;;;;;;-0.9;67.00391;933.6894;;;;
2021/01/08 04:31:29;;;;;;;1.1;0.8;;;;;;;-0.77;67.15918;933.6586;;;;
2021/01/08 04:33:54;;;;;;;1.7;1.5;;;;;;;-0.69;66.30566;933.6951;;;;
2021/01/08 04:36:20;;;;;;;2.1;1.4;;;;;;;-0.72;66.00977;933.6896;;;;
2021/01/08 04:38:45;;;;;;;1.5;1;;;;;;;-0.61;66.42871;933.6844;;;;
2021/01/08 04:41:10;;;;;;;1.8;1.2;;;;;;;-0.69;67.15918;933.6769;;;;
2021/01/08 04:43:35;;;;;;;1.6;1.1;;;;;;;-0.68;67.75293;933.6941;;;;
2021/01/08 04:46:00;;;;;;;1.5;1.2;;;;;;;-0.62;67.45996;933.6589;;;;
2021/01/08 04:48:25;;;;;;;1.1;1;;;;;;;-0.64;67.90234;933.6369;;;;
2021/01/08 04:50:50;;;;;;;0.9;0.8;;;;;;;-0.63;68.00488;933.6335;;;;
2021/01/08 04:53:15;;;;;;;2.7;1.5;;;;;;;-0.56;67.66113;933.5414;;;;
2021/01/08 04:55:40;;;;;;;1.2;1.1;;;;;;;-0.6;67.86523;933.6125;;;;
2021/01/08 04:58:05;;;;;;;2;1.4;;;;;;;-0.64;67.55762;933.5924;;;;
2021/01/08 05:00:31;;;;;;;2.1;1.1;;;;;;;-0.75;66.59473;933.6157;;;;
2021/01/08 05:02:56;;;;;;;0.7;0.7;;;;;;;-0.83;67.14941;933.6682;;;;
2021/01/08 05:05:21;;;;;;;1.2;1;;;;;;;-0.75;67.15039;933.6323;;;;
2021/01/08 05:07:46;;;;;;;2;1.1;;;;;;;-0.72;66.97754;933.6451;;;;
2021/01/08 05:10:11;;;;;;;2.3;1.1;;;;;;;-0.71;66.19238;933.663;;;;
2021/01/08 05:12:36;;;;;;;5.3;2.9;;;;;;;-0.7;66.69238;933.6655;;;;
2021/01/08 05:15:01;;;;;;;46;17.7;;;;;;;-0.64;67.21289;933.6682;;;;
2021/01/08 05:17:27;;;;;;;21.2;9.7;;;;;;;-0.63;67.1377;933.6735;;;;
2021/01/08 05:19:52;;;;;;;5.3;3;;;;;;;-0.54;66.87207;933.7251;;;;
2021/01/08 05:22:18;;;;;;;1.4;1.2;;;;;;;-0.64;64.81152;933.6755;;;;
2021/01/08 05:24:43;;;;;;;1.2;1.1;;;;;;;-0.7;65.11328;933.6445;;;;
2021/01/08 05:27:08;;;;;;;0.8;0.8;;;;;;;-0.68;65.32715;933.5991;;;;
2021/01/08 05:29:33;;;;;;;1;0.9;;;;;;;-0.77;65.58008;933.6979;;;;
2021/01/08 05:31:59;;;;;;;2.4;1.2;;;;;;;-0.73;65.7207;933.7012;;;;
2021/01/08 05:34:24;;;;;;;1.4;1.3;;;;;;;-1.09;65.19727;933.6486;;;;
2021/01/08 05:36:49;;;;;;;2.5;1.8;;;;;;;-1.25;66.7832;933.5873;;;;
2021/01/08 05:39:14;;;;;;;2;1.6;;;;;;;-1.25;67.34961;933.6527;;;;
2021/01/08 05:41:39;;;;;;;1.2;1.1;;;;;;;-1.19;67.84863;933.5186;;;;
2021/01/08 05:44:04;;;;;;;1.7;1.3;;;;;;;-1.23;67.58496;933.6302;;;;
2021/01/08 05:46:29;;;;;;;2.5;1.6;;;;;;;-1.23;69.28516;933.652;;;;
2021/01/08 05:48:54;;;;;;;3.5;1.1;;;;;;;-1.37;66.55371;933.6552;;;;
2021/01/08 05:51:19;;;;;;;1.8;1;;;;;;;-1.57;67.88672;933.6702;;;;
2021/01/08 05:53:44;;;;;;;1.3;0.8;;;;;;;-1.48;65.94629;933.681;;;;
2021/01/08 05:56:09;;;;;;;1.2;1.1;;;;;;;-1.58;64.6543;933.6678;;;;
2021/01/08 05:58:35;;;;;;;1.2;1;;;;;;;-1.48;65.11426;933.6561;;;;
2021/01/08 06:01:00;;;;;;;1.1;0.9;;;;;;;-1.37;65.67578;933.6849;;;;
2021/01/08 06:03:25;;;;;;;1.6;1.5;;;;;;;-1.34;66.53516;933.6691;;;;
2021/01/08 06:05:50;;;;;;;1.2;0.9;;;;;;;-1.27;66.22461;933.5902;;;;
2021/01/08 06:08:15;;;;;;;3.4;1.8;;;;;;;-1.36;65.59961;933.5183;;;;
2021/01/08 06:10:40;;;;;;;2.1;1.1;;;;;;;-1.39;65.5293;933.5615;;;;
2021/01/08 06:13:05;;;;;;;2.1;1.2;;;;;;;-1.35;65.85547;933.6153;;;;
2021/01/08 06:15:30;;;;;;;4.8;1.3;;;;;;;-1.32;66.57129;933.6386;;;;
2021/01/08 06:17:56;;;;;;;2;1.3;;;;;;;-1.27;66.41504;933.6295;;;;
2021/01/08 06:20:21;;;;;;;7.6;1.6;;;;;;;-1.41;65.93555;933.6727;;;;
2021/01/08 06:22:46;;;;;;;4;1.4;;;;;;;-1.2;66.67871;933.666;;;;
2021/01/08 06:25:11;;;;;;;3.9;1.1;;;;;;;-1.09;66.85352;933.6892;;;;
2021/01/08 06:27:36;;;;;;;1.4;1.1;;;;;;;-0.99;66.75781;933.6542;;;;
2021/01/08 06:30:01;;;;;;;2;0.9;;;;;;;-0.94;67.03125;933.6744;;;;
2021/01/08 06:32:26;;;;;;;2.3;1.1;;;;;;;-0.95;67.30762;933.6473;;;;
2021/01/08 06:34:51;;;;;;;3.2;1.6;;;;;;;-1.09;67.73047;933.6119;;;;
2021/01/08 06:37:18;;;;;;;1.4;1.2;;;;;;;-1.14;67.39063;933.6418;;;;
2021/01/08 06:39:42;;;;;;;2;1;;;;;;;-1.17;66.30566;933.6214;;;;
2021/01/08 06:42:06;;;;;;;1.8;1.4;;;;;;;-1.16;67.38574;933.6344;;;;
2021/01/08 06:44:32;;;;;;;2.1;1.2;;;;;;;-1.02;66.78711;933.6761;;;;
2021/01/08 06:46:57;;;;;;;0.9;0.9;;;;;;;-0.96;66.49512;933.6335;;;;
2021/01/08 06:49:22;;;;;;;0.8;0.8;;;;;;;-0.95;66.84082;933.6686;;;;
2021/01/08 06:51:47;;;;;;;1.4;1.1;;;;;;;-0.91;65.91504;933.7219;;;;
2021/01/08 06:54:13;;;;;;;0.9;0.7;;;;;;;-0.93;65.2002;933.6951;;;;
2021/01/08 06:56:37;;;;;;;1.4;0.7;;;;;;;-0.9;64.80273;933.7285;;;;
2021/01/08 06:59:03;;;;;;;2.2;0.9;;;;;;;-0.84;65.63672;933.7726;;;;
2021/01/08 07:01:28;;;;;;;2;0.9;;;;;;;-0.83;66.38184;933.8025;;;;
2021/01/08 07:03:53;;;;;;;1.3;1.2;;;;;;;-0.95;64.66309;933.8552;;;;
2021/01/08 07:06:18;;;;;;;1.8;1.2;;;;;;;-1.04;66.36133;933.9338;;;;
2021/01/08 07:08:43;;;;;;;4.1;1.2;;;;;;;-1.32;68.60547;933.9199;;;;
2021/01/08 07:11:08;;;;;;;2;1.4;;;;;;;-1.07;68.33398;933.9059;;;;
2021/01/08 07:13:33;;;;;;;1.3;1.2;;;;;;;-0.99;68.37891;933.8869;;;;
2021/01/08 07:15:59;;;;;;;1.1;0.9;;;;;;;-0.9;68.19336;933.9369;;;;
2021/01/08 07:18:27;;;;;;;4.5;2.3;;;;;;;-0.75;67.75098;933.9581;;;;
2021/01/08 07:20:52;;;;;;;5.3;2.3;;;;;;;-0.65;67.79102;933.9908;;;;
2021/01/08 07:23:17;;;;;;;3.9;1.7;;;;;;;-0.55;67.43945;934.0289;;;;
2021/01/08 07:25:42;;;;;;;3.7;1.8;;;;;;;-0.51;66.64355;934.0563;;;;
2021/01/08 07:28:07;;;;;;;2.2;1.6;;;;;;;-0.68;67.83008;934.13;;;;
2021/01/08 07:30:32;;;;;;;4.1;2.1;;;;;;;-0.89;68.91895;934.1902;;;;
2021/01/08 07:32:57;;;;;;;1.5;1.4;;;;;;;-1.05;68.71484;934.2347;;;;
2021/01/08 07:35:23;;;;;;;4.5;1.9;;;;;;;-1.15;68.17773;934.2;;;;
2021/01/08 07:37:47;;;;;;;1.6;1.3;;;;;;;-1.11;67.38379;934.3578;;;;
2021/01/08 07:40:13;;;;;;;3.4;2.1;;;;;;;-1.14;67.2998;934.4033;;;;
2021/01/08 07:42:38;;;;;;;2;1.8;;;;;;;-1.08;68.1543;934.3945;;;;
2021/01/08 07:45:03;;;;;;;4;1.8;;;;;;;-1.08;69.98828;934.4641;;;;
2021/01/08 07:47:28;;;;;;;1.4;1.1;;;;;;;-1.04;68.37109;934.4711;;;;
2021/01/08 07:49:53;;;;;;;3.4;1.7;;;;;;;-0.83;67.41699;934.443;;;;
2021/01/08 07:52:18;;;;;;;1.8;1.2;;;;;;;-0.78;66.06836;934.475;;;;
2021/01/08 07:54:43;;;;;;;8.9;1.4;;;;;;;-0.74;65.88477;934.4166;;;;
2021/01/08 07:57:08;;;;;;;2.5;1.5;;;;;;;-0.75;66.58398;934.5605;;;;
2021/01/08 07:59:33;;;;;;;2.6;1.6;;;;;;;-0.8;67.42188;934.6047;;;;
2021/01/08 08:01:58;;;;;;;2.3;1.6;;;;;;;-0.58;66.94434;934.6561;;;;
2021/01/08 08:04:23;;;;;;;4.6;2.5;;;;;;;-0.73;67.52246;934.6533;;;;
2021/01/08 08:06:48;;;;;;;2.9;1.6;;;;;;;-0.6;67.9873;934.6785;;;;
2021/01/08 08:09:14;;;;;;;1.8;1.2;;;;;;;-0.67;68.80957;934.7058;;;;
2021/01/08 08:11:39;;;;;;;2.7;1.9;;;;;;;-0.57;68.24707;934.7153;;;;
2021/01/08 08:14:04;;;;;;;2.6;1.8;;;;;;;-0.39;66.49609;934.6994;;;;
2021/01/08 08:16:29;;;;;;;10.3;2.5;;;;;;;-0.28;66.68066;934.6594;;;;
2021/01/08 08:18:54;;;;;;;2.4;1.6;;;;;;;-0.35;67.1377;934.827;;;;
2021/01/08 08:21:19;;;;;;;4.2;1.8;;;;;;;-0.26;66.69531;934.8685;;;;
2021/01/08 08:23:44;;;;;;;3.5;2.3;;;;;;;-0.36;67.53711;934.8353;;;;
2021/01/08 08:26:09;;;;;;;4.2;1.8;;;;;;;-0.21;67.37109;934.8198;;;;
2021/01/08 08:28:34;;;;;;;3.5;2.3;;;;;;;-0.02;66.53223;934.9143;;;;
2021/01/08 08:31:01;;;;;;;6;2.3;;;;;;;0.08;64.8877;934.8422;;;;
2021/01/08 08:33:25;;;;;;;7.5;2.7;;;;;;;0.16;65.0127;934.892;;;;
2021/01/08 08:35:50;;;;;;;4.4;2.7;;;;;;;0.1;65.11328;934.8453;;;;
2021/01/08 08:38:15;;;;;;;2.6;1.8;;;;;;;0.24;63.8877;934.8706;;;;
2021/01/08 08:40:40;;;;;;;4;2.2;;;;;;;0.29;63.79492;934.9453;;;;
2021/01/08 08:43:05;;;;;;;8.4;3.2;;;;;;;0.34;64.16992;934.9442;;;;
2021/01/08 08:45:31;;;;;;;6.7;3.2;;;;;;;0.29;64.56445;934.9196;;;;
2021/01/08 08:47:55;;;;;;;3.6;2.2;;;;;;;0.15;64.54395;934.9612;;;;
2021/01/08 08:50:20;;;;;;;5.8;2.2;;;;;;;0.21;65.23047;934.9731;;;;
2021/01/08 08:52:45;;;;;;;5;2.6;;;;;;;0.06;65.02051;935.016;;;;
2021/01/08 08:55:10;;;;;;;5.2;3.2;;;;;;;0.04;64.94922;935.008;;;;
2021/01/08 08:57:36;;;;;;;1.1;1;;;;;;;0.01;63.97559;934.9647;;;;
2021/01/08 09:00:01;;;;;;;5;2.3;;;;;;;-0.2;64.51074;935.0134;;;;
2021/01/08 09:02:26;;;;;;;2.7;1.5;;;;;;;-0.4;63.74707;934.9945;;;;
2021/01/08 09:04:51;;;;;;;3.1;1.9;;;;;;;-0.32;63.60254;934.9081;;;;
2021/01/08 09:07:16;;;;;;;4.9;1.7;;;;;;;-0.04;63.66699;935.0147;;;;
2021/01/08 09:09:41;;;;;;;1.9;1.3;;;;;;;-0.04;62.30762;935.0198;;;;
2021/01/08 09:12:06;;;;;;;1.8;1.4;;;;;;;0.09;61.95898;934.9578;;;;
2021/01/08 09:14:31;;;;;;;1.7;1.4;;;;;;;0.02;61.01367;934.8953;;;;
2021/01/08 09:16:59;;;;;;;3.1;2.1;;;;;;;-0.31;61.74512;935.0009;;;;
2021/01/08 09:19:22;;;;;;;2.6;1.4;;;;;;;-0.35;62.49609;934.9819;;;;
2021/01/08 09:21:48;;;;;;;6.3;1.9;;;;;;;-0.08;62.98242;935.0411;;;;
2021/01/08 09:24:12;;;;;;;1.4;1.3;;;;;;;0.28;63.88281;935.0687;;;;
2021/01/08 09:26:41;;;;;;;5.9;2.6;;;;;;;0.16;60.09766;935.0304;;;;
2021/01/08 09:29:02;;;;;;;4;1.7;;;;;;;-0.03;59.58203;935.0276;;;;
2021/01/08 09:31:27;;;;;;;2;1.8;;;;;;;0.03;59.66602;935.0442;;;;
2021/01/08 09:33:52;;;;;;;5.1;1.4;;;;;;;0.02;59.35254;934.9336;;;;
2021/01/08 09:36:17;;;;;;;4.6;1.8;;;;;;;-0.07;59.65332;934.9914;;;;
2021/01/08 09:38:43;;;;;;;3.2;1.5;;;;;;;-0.01;59.17188;935.0019;;;;
2021/01/08 09:41:08;;;;;;;1.8;1.4;;;;;;;0.02;58.95215;935.0056;;;;
2021/01/08 09:43:33;;;;;;;5.4;1.7;;;;;;;0.04;59.75781;935.0071;;;;
2021/01/08 09:45:59;;;;;;;4.6;1.7;;;;;;;-0.06;57.99316;935.0167;;;;
2021/01/08 09:48:24;;;;;;;2.5;1.6;;;;;;;-0.02;59.06934;935.0012;;;;
2021/01/08 09:50:49;;;;;;;3.5;1.6;;;;;;;0.34;58.37402;935.0197;;;;
2021/01/08 09:53:14;;;;;;;3.2;1.5;;;;;;;0.66;58.16016;934.9571;;;;
2021/01/08 09:55:39;;;;;;;1.2;1.1;;;;;;;0.87;56.79395;934.9669;;;;
2021/01/08 09:58:04;;;;;;;2.8;1.9;;;;;;;0.84;56.44434;934.954;;;;
2021/01/08 10:00:30;;;;;;;2.7;1.7;;;;;;;0.8;56.10352;934.8744;;;;
2021/01/08 10:02:55;;;;;;;3.5;1.5;;;;;;;0.89;56.51758;934.9238;;;;
2021/01/08 10:05:20;;;;;;;13.8;1.7;;;;;;;1.05;56.08301;934.8772;;;;
2021/01/08 10:07:45;;;;;;;3.9;1.8;;;;;;;1.18;55.80957;934.9291;;;;
2021/01/08 10:10:10;;;;;;;3.6;1.3;;;;;;;1.33;55.11426;934.9338;;;;
2021/01/08 10:12:35;;;;;;;2.2;1.4;;;;;;;1.42;55.50391;934.8869;;;;
2021/01/08 10:15:01;;;;;;;15.7;2.6;;;;;;;1.51;54.89063;934.7957;;;;
2021/01/08 10:17:25;;;;;;;2.6;1.5;;;;;;;1.57;55.28906;934.7489;;;;
2021/01/08 10:19:50;;;;;;;6;2.4;;;;;;;1.54;55.19629;934.8444;;;;
2021/01/08 10:22:15;;;;;;;5;1.8;;;;;;;1.56;56.24902;934.7714;;;;
2021/01/08 10:24:40;;;;;;;2.5;1.7;;;;;;;1.51;55.44922;934.8097;;;;
2021/01/08 10:27:06;;;;;;;1.4;1.3;;;;;;;1.48;54.83008;934.7355;;;;
2021/01/08 10:29:31;;;;;;;2.7;1.2;;;;;;;1.31;54.82031;934.6883;;;;
2021/01/08 10:31:57;;;;;;;4.9;2.4;;;;;;;1.21;55.46484;934.7062;;;;
2021/01/08 10:34:21;;;;;;;4.8;2.2;;;;;;;1.06;55.23438;934.7119;;;;
2021/01/08 10:36:46;;;;;;;4.5;2;;;;;;;0.82;55.80469;934.5972;;;;
2021/01/08 10:39:11;;;;;;;3.8;2.4;;;;;;;0.81;56.38379;934.5938;;;;
2021/01/08 10:41:38;;;;;;;1.5;1.3;;;;;;;0.95;56.72754;934.6102;;;;
2021/01/08 10:44:04;;;;;;;3;1.5;;;;;;;0.88;55.74609;934.588;;;;
2021/01/08 10:46:28;;;;;;;1.6;1.5;;;;;;;0.97;55.95898;934.5004;;;;
2021/01/08 10:48:54;;;;;;;1.7;1.5;;;;;;;0.88;55.65723;934.4539;;;;
2021/01/08 10:51:20;;;;;;;6.2;2.9;;;;;;;1.04;56.1582;934.466;;;;
2021/01/08 10:53:44;;;;;;;1.3;1.2;;;;;;;1.16;55.13574;934.4423;;;;
2021/01/08 10:56:09;;;;;;;6.6;2.4;;;;;;;1.12;55.72266;934.3419;;;;
2021/01/08 10:58:35;;;;;;;6.4;1.8;;;;;;;0.93;55.02637;934.3883;;;;
2021/01/08 11:00:59;;;;;;;4.4;1.7;;;;;;;0.9;57.21094;934.3738;;;;
2021/01/08 11:03:24;;;;;;;1.7;1.4;;;;;;;1.16;55.53711;934.3307;;;;
2021/01/08 11:05:49;;;;;;;4.9;2;;;;;;;1.63;56.16992;934.193;;;;
2021/01/08 11:08:14;;;;;;;1.8;1.3;;;;;;;1.84;55.16895;934.2282;;;;
2021/01/08 11:10:40;;;;;;;2.9;1.6;;;;;;;1.77;54.1416;934.1365;;;;
2021/01/08 11:13:05;;;;;;;3.6;1.8;;;;;;;1.79;53.95215;934.1631;;;;
2021/01/08 11:15:30;;;;;;;1.4;0.9;;;;;;;1.24;53.60449;934.1906;;;;
2021/01/08 11:17:56;;;;;;;1.8;1.3;;;;;;;0.87;55.51074;934.1127;;;;
2021/01/08 11:20:21;;;;;;;2.9;1.6;;;;;;;1.42;56.19824;934.0101;;;;
2021/01/08 11:22:46;;;;;;;1.6;0.8;;;;;;;1.46;55.96875;934;;;;
2021/01/08 11:25:11;;;;;;;1.5;1.3;;;;;;;1.45;56.3252;933.9902;;;;
2021/01/08 11:27:36;;;;;;;2.8;1.6;;;;;;;2.12;56.2002;933.9836;;;;
2021/01/08 11:30:01;;;;;;;7.1;1.9;;;;;;;2.57;53.36914;933.9911;;;;
2021/01/08 11:32:26;;;;;;;3.4;1.8;;;;;;;3.2;51.87695;934.0178;;;;
2021/01/08 11:34:51;;;;;;;1.9;1.4;;;;;;;3.02;52.68555;934.017;;;;
2021/01/08 11:37:17;;;;;;;2.2;1.5;;;;;;;3.03;50.375;933.9709;;;;
2021/01/08 11:39:42;;;;;;;3.2;1.9;;;;;;;2.99;50.30371;933.9916;;;;
2021/01/08 11:42:07;;;;;;;1.5;1.1;;;;;;;3.16;49.83984;933.9575;;;;
2021/01/08 11:44:32;;;;;;;2.5;1.3;;;;;;;3.16;51.01855;933.9551;;;;
2021/01/08 11:46:58;;;;;;;2.6;1;;;;;;;3.26;50.49316;933.9286;;;;
2021/01/08 11:49:24;;;;;;;1.2;1;;;;;;;3.75;51.60547;933.9124;;;;
2021/01/08 11:51:49;;;;;;;1.5;1;;;;;;;3.88;51.07227;933.8297;;;;
2021/01/08 11:54:15;;;;;;;2.4;1.2;;;;;;;3.77;50.87793;933.9019;;;;
2021/01/08 11:56:40;;;;;;;1.5;1.2;;;;;;;3.85;49.0332;933.8248;;;;
2021/01/08 11:59:05;;;;;;;6.5;1.2;;;;;;;3.81;50.39941;933.8309;;;;
2021/01/08 12:01:30;;;;;;;1.3;1;;;;;;;4.09;50.42188;933.7473;;;;
2021/01/08 12:03:55;;;;;;;4.3;2.1;;;;;;;4.07;50.10449;933.8193;;;;
2021/01/08 12:06:20;;;;;;;4.5;1.9;;;;;;;3.88;50.27441;933.7794;;;;
2021/01/08 12:08:45;;;;;;;2;1.2;;;;;;;3.79;48.90332;933.8215;;;;
2021/01/08 12:11:10;;;;;;;2.3;1.1;;;;;;;3.88;49.12793;933.7352;;;;
2021/01/08 12:13:36;;;;;;;2.1;1.4;;;;;;;4.08;48.74609;933.762;;;;
2021/01/08 12:16:01;;;;;;;2.1;1.3;;;;;;;4.22;48.85059;933.6816;;;;
2021/01/08 12:18:26;;;;;;;2.3;1.3;;;;;;;4.25;49.94531;933.6855;;;;
2021/01/08 12:20:51;;;;;;;0.8;0.8;;;;;;;4.27;48.66602;933.6703;;;;
2021/01/08 12:23:16;;;;;;;1.6;1.2;;;;;;;4.23;50.31348;933.7203;;;;
2021/01/08 12:25:41;;;;;;;2.4;0.9;;;;;;;4.36;49.11523;933.7458;;;;
2021/01/08 12:28:06;;;;;;;2;0.9;;;;;;;4.45;48.71973;933.7498;;;;
2021/01/08 12:30:31;;;;;;;1.2;1.1;;;;;;;4.08;48.94824;933.7156;;;;
2021/01/08 12:32:57;;;;;;;2.2;1.3;;;;;;;3.96;50.14844;933.7372;;;;
2021/01/08 12:35:22;;;;;;;2.1;1.5;;;;;;;3.56;51.77539;933.8163;;;;
2021/01/08 12:37:47;;;;;;;2.5;1.5;;;;;;;3.49;52.15918;933.8049;;;;
2021/01/08 12:40:12;;;;;;;3.4;1.8;;;;;;;3.38;53.03223;933.7832;;;;
2021/01/08 12:42:37;;;;;;;3.5;1.6;;;;;;;3.52;52.66797;933.7671;;;;
2021/01/08 12:45:02;;;;;;;2.4;1.9;;;;;;;3.66;52.26953;933.7816;;;;
2021/01/08 12:47:27;;;;;;;4.9;1.7;;;;;;;3.75;51.3252;933.7942;;;;
2021/01/08 12:49:52;;;;;;;1.9;1.4;;;;;;;3.45;52.11035;933.7952;;;;
2021/01/08 12:52:18;;;;;;;3.1;1.9;;;;;;;2.88;52.66797;933.8136;;;;
2021/01/08 12:54:44;;;;;;;4.7;1.4;;;;;;;3.04;53.0127;933.7983;;;;
2021/01/08 12:57:08;;;;;;;2;1.6;;;;;;;3.25;52.6123;933.8378;;;;
2021/01/08 12:59:33;;;;;;;7.8;1.8;;;;;;;3.35;52.27637;933.7784;;;;
2021/01/08 13:01:58;;;;;;;2.9;1.4;;;;;;;3.33;52.71289;933.7695;;;;
2021/01/08 13:04:23;;;;;;;12.4;4.5;;;;;;;3.19;53.66016;933.666;;;;
2021/01/08 13:06:49;;;;;;;3.8;2.1;;;;;;;3.13;53.23828;933.7908;;;;
2021/01/08 13:09:13;;;;;;;5.4;2;;;;;;;3.16;53.5332;933.8011;;;;
2021/01/08 13:11:39;;;;;;;1.7;1.3;;;;;;;3.11;54.30078;933.8412;;;;
2021/01/08 13:14:04;;;;;;;4.3;1.9;;;;;;;3.23;53.50684;933.8347;;;;
2021/01/08 13:16:29;;;;;;;6.2;1.7;;;;;;;2.45;54.90039;933.8616;;;;
2021/01/08 13:18:54;;;;;;;2.1;1.6;;;;;;;2.37;55.20313;933.8814;;;;
2021/01/08 13:21:19;;;;;;;5;1.7;;;;;;;2.68;54.7959;933.7891;;;;
2021/01/08 13:23:44;;;;;;;8.4;4.4;;;;;;;2.89;54.69922;933.8494;;;;
2021/01/08 13:26:09;;;;;;;2.4;1.2;;;;;;;2.8;54.70898;933.7942;;;;
2021/01/08 13:28:34;;;;;;;1.9;1.5;;;;;;;2.88;54.27246;933.7296;;;;
2021/01/08 13:31:01;;;;;;;1.9;1.1;;;;;;;2.91;54.55566;933.7783;;;;
2021/01/08 13:33:25;;;;;;;1.2;1.1;;;;;;;2.99;54.50879;933.8459;;;;
2021/01/08 13:35:50;;;;;;;1.9;1.4;;;;;;;2.85;54.92969;933.8544;;;;
2021/01/08 13:38:15;;;;;;;2.3;1.4;;;;;;;2.81;54.72266;933.8625;;;;
2021/01/08 13:40:40;;;;;;;1.5;1.3;;;;;;;2.78;55.22266;933.8094;;;;
2021/01/08 13:43:05;;;;;;;9.9;1.8;;;;;;;2.37;56.51563;933.8455;;;;
2021/01/08 13:45:30;;;;;;;2.3;1.6;;;;;;;2.54;55.88574;933.9084;;;;
2021/01/08 13:47:57;;;;;;;1.9;1.2;;;;;;;2.55;55.88965;933.8586;;;;
2021/01/08 13:50:22;;;;;;;1.8;1.3;;;;;;;2.53;56.3457;933.861;;;;
2021/01/08 13:52:48;;;;;;;2.7;1.8;;;;;;;2.7;56.26758;933.8928;;;;
2021/01/08 13:55:13;;;;;;;3.8;1.8;;;;;;;2.55;56.29199;933.897;;;;
2021/01/08 13:57:38;;;;;;;3.1;1.6;;;;;;;2.67;56.25098;933.9758;;;;
2021/01/08 14:00:03;;;;;;;2.2;1.9;;;;;;;2.32;56.71973;933.9411;;;;
2021/01/08 14:02:28;;;;;;;2.8;1.7;;;;;;;2.28;57.74512;933.9083;;;;
2021/01/08 14:04:55;;;;;;;5.3;2.2;;;;;;;2.23;58.53418;933.9988;;;;
2021/01/08 14:07:18;;;;;;;2.1;1.7;;;;;;;1.99;58.94824;934.052;;;;
2021/01/08 14:09:43;;;;;;;2.3;1.8;;;;;;;2.17;58.08887;934.0292;;;;
2021/01/08 14:12:09;;;;;;;4.2;1.7;;;;;;;2.07;58.86914;934.0101;;;;
2021/01/08 14:14:33;;;;;;;2.9;2;;;;;;;2.23;58.14063;934.048;;;;
2021/01/08 14:16:59;;;;;;;4.1;2.1;;;;;;;1.67;59.99902;934.0232;;;;
2021/01/08 14:19:24;;;;;;;5.1;2.9;;;;;;;1.42;61.02637;934.1397;;;;